Time;durP1;ratioP1;P1;durP2;ratioP2;P2;SDS_P1;SDS_P2;PMS_P1;PMS_P2;Temp;Humidity;BMP_temperature;BMP_pressure;BME280_temperature;BME280_humidity;BME280_pressure;Samples;Min_cycle;Max_cycle;Signal;HPM_P1;HPM_P2
2022/02/26 00:01:23;;;;;;;12.05;4.35;;;8.30;99.90;;;;;;5107081;28;20227;-65
2022/02/26 00:03:50;;;;;;;21.52;4.78;;;8.30;99.90;;;;;;5110129;27;20231;-65
2022/02/26 00:06:16;;;;;;;13.77;3.97;;;8.30;99.90;;;;;;5111837;27;20234;-65
2022/02/26 00:08:43;;;;;;;12.63;4.30;;;8.30;99.90;;;;;;5113381;28;20566;-65
2022/02/26 00:11:10;;;;;;;21.02;6.50;;;8.30;99.90;;;;;;5103485;28;20231;-65
2022/02/26 00:13:37;;;;;;;11.52;3.60;;;8.30;99.90;;;;;;5101414;28;20461;-65
2022/02/26 00:16:05;;;;;;;19.92;6.88;;;8.30;99.90;;;;;;5110180;27;20212;-65
2022/02/26 00:18:33;;;;;;;9.18;4.65;;;8.30;99.90;;;;;;5115132;27;20219;-65
2022/02/26 00:21:00;;;;;;;15.05;5.05;;;8.30;99.90;;;;;;5112662;27;20306;-63
2022/02/26 00:23:27;;;;;;;16.27;5.20;;;8.30;99.90;;;;;;5110200;27;20223;-63
2022/02/26 00:25:54;;;;;;;13.35;4.32;;;8.30;99.90;;;;;;5112268;27;20685;-63
2022/02/26 00:28:22;;;;;;;10.68;3.65;;;8.20;99.90;;;;;;5111458;28;20228;-64
2022/02/26 00:30:49;;;;;;;23.35;7.15;;;8.20;99.90;;;;;;5104488;28;20546;-64
2022/02/26 00:33:16;;;;;;;15.82;4.32;;;8.20;99.90;;;;;;5113106;27;20223;-64
2022/02/26 00:35:44;;;;;;;13.45;3.90;;;8.20;99.90;;;;;;5114529;28;20219;-64
2022/02/26 00:38:11;;;;;;;17.77;5.68;;;8.20;99.90;;;;;;5100628;28;20219;-64
2022/02/26 00:40:38;;;;;;;15.50;4.68;;;8.20;99.90;;;;;;5114794;28;20369;-64
2022/02/26 00:43:05;;;;;;;16.50;4.05;;;8.20;99.90;;;;;;5109927;28;20566;-64
2022/02/26 00:45:32;;;;;;;14.73;4.68;;;8.20;99.90;;;;;;5105520;28;20223;-65
2022/02/26 00:47:59;;;;;;;12.05;4.10;;;8.20;99.90;;;;;;5100640;28;20249;-65
2022/02/26 00:50:25;;;;;;;19.98;5.57;;;8.30;99.90;;;;;;5102385;27;20228;-65
2022/02/26 00:52:54;;;;;;;18.70;6.10;;;8.30;99.90;;;;;;5108744;28;20580;-65
2022/02/26 00:55:22;;;;;;;14.15;6.72;;;8.30;99.90;;;;;;5114184;27;20476;-64
2022/02/26 00:57:49;;;;;;;18.63;7.20;;;8.30;99.90;;;;;;5109016;28;20242;-64
2022/02/26 01:00:17;;;;;;;15.52;7.22;;;8.30;99.90;;;;;;5105237;28;20227;-64
2022/02/26 01:02:44;;;;;;;8.95;4.85;;;8.40;99.90;;;;;;5113039;28;20223;-65
2022/02/26 01:05:11;;;;;;;13.50;5.10;;;8.40;99.90;;;;;;5111481;27;20614;-64
2022/02/26 01:07:38;;;;;;;9.18;3.92;;;8.40;99.90;;;;;;5114211;28;20668;-64
2022/02/26 01:10:08;;;;;;;15.70;4.45;;;8.40;99.90;;;;;;5099846;28;20408;-64
2022/02/26 01:12:35;;;;;;;13.43;4.93;;;8.40;99.90;;;;;;5105504;27;20670;-64
2022/02/26 01:15:03;;;;;;;12.10;4.00;;;8.40;99.90;;;;;;5107337;28;20231;-64
2022/02/26 01:17:30;;;;;;;16.48;5.10;;;8.40;99.90;;;;;;5102005;28;20219;-64
2022/02/26 01:19:57;;;;;;;9.52;4.13;;;8.40;99.90;;;;;;5113540;27;20229;-65
2022/02/26 01:22:24;;;;;;;20.63;5.57;;;8.40;99.90;;;;;;5113176;27;20233;-64
2022/02/26 01:24:51;;;;;;;12.95;4.40;;;8.30;99.90;;;;;;5112307;27;20223;-64
2022/02/26 01:27:19;;;;;;;19.92;6.15;;;8.30;99.90;;;;;;5113303;28;20227;-64
2022/02/26 01:29:45;;;;;;;13.88;6.05;;;8.20;99.90;;;;;;5100305;28;20229;-64
2022/02/26 01:32:12;;;;;;;11.63;4.65;;;8.20;99.90;;;;;;5103349;28;20220;-64
2022/02/26 01:34:39;;;;;;;14.13;4.63;;;8.20;99.90;;;;;;5109786;28;20223;-64
2022/02/26 01:37:06;;;;;;;14.07;5.57;;;8.20;99.90;;;;;;5103515;28;20228;-64
2022/02/26 01:39:33;;;;;;;19.85;4.90;;;8.20;99.90;;;;;;5106548;28;20220;-64
2022/02/26 01:42:00;;;;;;;14.15;5.10;;;8.20;99.90;;;;;;5103407;28;20333;-65
2022/02/26 01:44:28;;;;;;;24.27;6.32;;;8.20;99.90;;;;;;5098872;28;20227;-65
2022/02/26 01:46:55;;;;;;;16.75;4.63;;;8.20;99.90;;;;;;5102754;28;20239;-64
2022/02/26 01:49:22;;;;;;;22.30;6.28;;;8.20;99.90;;;;;;5106116;28;20228;-65
2022/02/26 01:51:51;;;;;;;16.40;6.32;;;8.20;99.90;;;;;;5103815;28;20223;-64
2022/02/26 01:54:21;;;;;;;14.20;5.60;;;8.20;99.90;;;;;;5098799;28;20321;-65
2022/02/26 01:56:49;;;;;;;17.75;4.97;;;8.20;99.90;;;;;;5113295;28;20237;-64
2022/02/26 01:59:19;;;;;;;14.23;5.25;;;8.20;99.90;;;;;;5099085;28;20227;-64
2022/02/26 02:01:49;;;;;;;23.00;4.95;;;8.20;99.90;;;;;;5100316;28;20227;-64
2022/02/26 02:04:17;;;;;;;20.20;5.40;;;8.20;99.90;;;;;;5112197;27;20309;-64
2022/02/26 02:06:45;;;;;;;17.33;5.72;;;8.20;99.90;;;;;;5111051;28;20291;-65
2022/02/26 02:09:13;;;;;;;16.10;4.10;;;8.20;99.90;;;;;;5105535;28;20231;-64
2022/02/26 02:11:40;;;;;;;12.85;5.50;;;8.20;99.90;;;;;;5106270;28;20237;-64
2022/02/26 02:14:07;;;;;;;13.38;4.13;;;8.20;99.90;;;;;;5100048;28;20234;-64
2022/02/26 02:16:36;;;;;;;19.70;5.45;;;8.30;99.90;;;;;;5098850;28;20216;-64
2022/02/26 02:19:07;;;;;;;12.07;4.40;;;8.20;99.90;;;;;;5113030;28;20353;-65
2022/02/26 02:21:34;;;;;;;11.40;4.70;;;8.20;99.90;;;;;;5098776;28;20235;-65
2022/02/26 02:24:02;;;;;;;16.27;4.35;;;8.20;99.90;;;;;;5104143;28;20569;-65
2022/02/26 02:26:30;;;;;;;23.30;6.50;;;8.20;99.90;;;;;;5107993;28;20227;-64
2022/02/26 02:28:58;;;;;;;12.38;4.53;;;8.20;99.90;;;;;;5103303;28;20227;-64
2022/02/26 02:31:25;;;;;;;19.88;4.20;;;8.20;99.90;;;;;;5105339;28;20227;-64
2022/02/26 02:33:52;;;;;;;16.35;5.22;;;8.30;99.90;;;;;;5102207;28;20556;-64
2022/02/26 02:36:19;;;;;;;13.63;4.32;;;8.30;99.90;;;;;;5108979;28;20223;-64
2022/02/26 02:38:46;;;;;;;20.30;5.28;;;8.30;99.90;;;;;;5102341;28;20241;-64
2022/02/26 02:41:14;;;;;;;18.10;5.40;;;8.30;99.90;;;;;;5099075;28;20582;-64
2022/02/26 02:43:41;;;;;;;14.18;4.50;;;8.30;99.90;;;;;;5101704;28;20215;-65
2022/02/26 02:46:08;;;;;;;18.52;4.82;;;8.30;99.90;;;;;;5105916;28;20693;-64
2022/02/26 02:48:36;;;;;;;14.35;4.35;;;8.30;99.90;;;;;;5102969;28;20222;-64
2022/02/26 02:51:03;;;;;;;9.70;3.55;;;8.30;99.90;;;;;;5098775;28;20288;-64
2022/02/26 02:53:30;;;;;;;18.40;4.68;;;8.30;99.90;;;;;;5100557;28;20216;-64
2022/02/26 02:55:57;;;;;;;18.05;4.95;;;8.30;99.90;;;;;;5110906;28;20699;-64
2022/02/26 02:58:27;;;;;;;20.00;6.10;;;8.30;99.90;;;;;;5103226;28;20235;-64
2022/02/26 03:00:55;;;;;;;12.65;4.68;;;8.30;99.90;;;;;;5109612;28;20535;-64
2022/02/26 03:03:22;;;;;;;14.13;4.90;;;8.30;99.90;;;;;;5108515;28;20225;-64
2022/02/26 03:05:49;;;;;;;14.98;5.22;;;8.30;99.90;;;;;;5114443;27;20229;-64
2022/02/26 03:08:16;;;;;;;19.40;5.53;;;8.30;99.90;;;;;;5116639;28;20576;-64
2022/02/26 03:10:43;;;;;;;15.70;4.38;;;8.20;99.90;;;;;;5102295;28;20231;-65
2022/02/26 03:13:10;;;;;;;11.30;3.75;;;8.30;99.90;;;;;;5103105;28;20224;-64
2022/02/26 03:15:38;;;;;;;15.88;4.03;;;8.30;99.90;;;;;;5109325;28;20706;-64
2022/02/26 03:18:05;;;;;;;15.90;4.47;;;8.30;99.90;;;;;;5109668;28;20223;-64
2022/02/26 03:20:32;;;;;;;10.27;4.60;;;8.30;99.90;;;;;;5108776;27;20255;-64
2022/02/26 03:22:59;;;;;;;14.13;4.05;;;8.30;99.90;;;;;;5109160;27;20315;-64
2022/02/26 03:25:26;;;;;;;16.95;5.15;;;8.30;99.90;;;;;;5102580;28;20219;-64
2022/02/26 03:27:53;;;;;;;22.42;5.25;;;8.20;99.90;;;;;;5115609;28;20219;-64
2022/02/26 03:30:20;;;;;;;12.18;4.63;;;8.30;99.90;;;;;;5103087;28;20223;-64
2022/02/26 03:32:48;;;;;;;23.73;6.95;;;8.20;99.90;;;;;;5113323;27;20559;-64
2022/02/26 03:35:15;;;;;;;14.70;5.05;;;8.20;99.90;;;;;;5116048;28;20229;-64
2022/02/26 03:37:42;;;;;;;17.58;4.70;;;8.20;99.90;;;;;;5102057;28;20230;-64
2022/02/26 03:40:11;;;;;;;12.65;5.10;;;8.20;99.90;;;;;;5107135;28;20242;-65
2022/02/26 03:42:38;;;;;;;14.57;4.32;;;8.20;99.90;;;;;;5111327;27;20569;-64
2022/02/26 03:45:10;;;;;;;10.75;3.67;;;8.20;99.90;;;;;;5106903;28;20231;-63
2022/02/26 03:47:37;;;;;;;13.43;5.10;;;8.20;99.90;;;;;;5108708;28;20677;-64
2022/02/26 03:50:06;;;;;;;17.25;4.57;;;8.20;99.90;;;;;;5105440;28;20250;-63
2022/02/26 03:52:32;;;;;;;15.20;4.78;;;8.20;99.90;;;;;;5101589;28;20833;-64
2022/02/26 03:55:02;;;;;;;15.57;4.43;;;8.20;99.90;;;;;;5107436;28;20234;-64
2022/02/26 03:57:29;;;;;;;19.38;5.10;;;8.20;99.90;;;;;;5110487;28;20288;-64
2022/02/26 03:59:56;;;;;;;14.65;4.90;;;8.10;99.90;;;;;;5106683;28;20238;-64
2022/02/26 04:02:23;;;;;;;15.73;5.80;;;8.10;99.90;;;;;;5100947;28;20237;-64
2022/02/26 04:04:50;;;;;;;14.68;4.78;;;8.10;99.90;;;;;;5115326;27;20231;-63
2022/02/26 04:07:18;;;;;;;16.17;4.35;;;8.10;99.90;;;;;;5108446;28;20223;-64
2022/02/26 04:09:45;;;;;;;20.90;5.85;;;8.10;99.90;;;;;;5099837;28;20223;-64
2022/02/26 04:12:12;;;;;;;18.55;4.22;;;8.10;99.90;;;;;;5115273;28;20237;-65
2022/02/26 04:14:38;;;;;;;11.32;4.32;;;8.00;99.90;;;;;;5101608;28;20230;-64
2022/02/26 04:17:06;;;;;;;13.88;5.53;;;8.00;99.90;;;;;;5103318;28;20238;-64
2022/02/26 04:19:33;;;;;;;21.35;5.57;;;8.00;99.90;;;;;;5114587;27;20235;-64
2022/02/26 04:22:00;;;;;;;18.45;4.75;;;7.90;99.90;;;;;;5101089;28;20239;-64
2022/02/26 04:24:28;;;;;;;18.70;4.63;;;7.90;99.90;;;;;;5107058;28;20227;-64
2022/02/26 04:26:55;;;;;;;17.30;4.30;;;7.90;99.90;;;;;;5109272;28;20223;-64
2022/02/26 04:29:22;;;;;;;13.88;4.50;;;7.90;99.90;;;;;;5107153;28;20227;-64
2022/02/26 04:31:49;;;;;;;19.70;6.10;;;7.90;99.90;;;;;;5105648;28;20568;-64
2022/02/26 04:34:16;;;;;;;16.83;4.88;;;7.90;99.90;;;;;;5115117;28;20219;-64
2022/02/26 04:36:43;;;;;;;15.02;3.40;;;7.90;99.90;;;;;;5100520;28;20228;-64
2022/02/26 04:39:09;;;;;;;17.00;6.38;;;7.90;99.90;;;;;;5106335;28;20224;-63
2022/02/26 04:41:38;;;;;;;15.65;4.25;;;7.90;99.90;;;;;;5107606;28;20291;-64
2022/02/26 04:44:05;;;;;;;13.52;4.80;;;7.90;99.90;;;;;;5103352;28;20322;-64
2022/02/26 04:46:31;;;;;;;25.98;7.40;;;7.90;99.90;;;;;;5111821;28;20227;-63
2022/02/26 04:48:58;;;;;;;19.23;4.80;;;7.90;99.90;;;;;;5103742;28;20246;-64
2022/02/26 04:51:25;;;;;;;13.88;5.13;;;7.90;99.90;;;;;;5100478;28;20705;-64
2022/02/26 04:53:52;;;;;;;9.27;3.88;;;7.90;99.90;;;;;;5104563;28;20220;-65
2022/02/26 04:56:19;;;;;;;13.85;4.82;;;7.90;99.90;;;;;;5107554;28;20235;-65
2022/02/26 04:58:47;;;;;;;16.10;5.28;;;7.90;99.90;;;;;;5103085;28;20238;-65
2022/02/26 05:01:14;;;;;;;16.13;5.13;;;7.90;99.90;;;;;;5100450;28;20273;-65
2022/02/26 05:03:43;;;;;;;7.32;3.10;;;7.90;99.90;;;;;;5113984;27;20230;-65
2022/02/26 05:06:10;;;;;;;14.43;4.55;;;7.90;99.90;;;;;;5107091;27;20584;-65
2022/02/26 05:08:37;;;;;;;15.63;4.32;;;7.90;99.90;;;;;;5113686;27;20223;-65
2022/02/26 05:11:04;;;;;;;9.13;3.58;;;7.90;99.90;;;;;;5100434;28;20223;-65
2022/02/26 05:13:30;;;;;;;14.15;4.30;;;7.90;99.90;;;;;;5102918;28;20224;-65
2022/02/26 05:15:59;;;;;;;16.80;4.68;;;8.00;99.90;;;;;;5106940;28;20254;-65
2022/02/26 05:18:25;;;;;;;9.90;4.00;;;8.00;99.90;;;;;;5104689;28;20222;-65
2022/02/26 05:20:52;;;;;;;17.73;5.10;;;8.00;99.90;;;;;;5108209;28;20239;-65
2022/02/26 05:23:19;;;;;;;17.52;5.65;;;8.00;99.90;;;;;;5104893;28;20222;-65
2022/02/26 05:25:46;;;;;;;11.00;4.18;;;8.00;99.90;;;;;;5099115;28;20219;-65
2022/02/26 05:28:16;;;;;;;10.77;4.00;;;8.00;99.90;;;;;;5113423;28;20253;-66
2022/02/26 05:30:43;;;;;;;22.80;5.20;;;8.00;99.90;;;;;;5099370;28;20230;-66
2022/02/26 05:33:11;;;;;;;10.07;4.32;;;8.00;99.90;;;;;;5110027;28;20230;-64
2022/02/26 05:35:38;;;;;;;19.90;4.18;;;8.10;99.90;;;;;;5107421;28;20223;-64
2022/02/26 05:38:05;;;;;;;13.88;3.92;;;8.10;99.90;;;;;;5105644;28;20230;-65
2022/02/26 05:40:32;;;;;;;13.95;4.82;;;8.10;99.90;;;;;;5099388;28;20231;-64
2022/02/26 05:42:59;;;;;;;16.05;3.83;;;8.10;99.90;;;;;;5101205;28;20223;-64
2022/02/26 05:45:26;;;;;;;11.15;4.10;;;8.10;99.90;;;;;;5112486;27;20604;-64
2022/02/26 05:47:53;;;;;;;10.00;3.85;;;8.10;99.90;;;;;;5112088;28;20245;-64
2022/02/26 05:50:21;;;;;;;14.43;4.28;;;8.10;99.90;;;;;;5110471;28;20223;-65
2022/02/26 05:52:55;;;;;;;12.20;5.32;;;8.20;99.90;;;;;;5110629;28;20215;-66
2022/02/26 05:55:22;;;;;;;14.30;5.07;;;8.20;99.90;;;;;;5111198;28;20214;-66
2022/02/26 05:57:49;;;;;;;12.13;4.10;;;8.20;99.90;;;;;;5110929;28;20223;-66
2022/02/26 06:00:20;;;;;;;23.60;6.18;;;8.20;99.90;;;;;;5111607;28;20234;-66
2022/02/26 06:02:47;;;;;;;10.40;4.47;;;8.20;99.90;;;;;;5111438;28;20589;-66
2022/02/26 06:05:14;;;;;;;12.10;4.60;;;8.20;99.90;;;;;;5113352;28;20300;-66
2022/02/26 06:07:42;;;;;;;13.68;4.18;;;8.20;99.90;;;;;;5112951;28;20250;-66
2022/02/26 06:10:09;;;;;;;10.75;3.95;;;8.20;99.90;;;;;;5113304;28;20555;-66
2022/02/26 06:12:36;;;;;;;8.25;3.13;;;8.30;99.90;;;;;;5112875;28;20215;-66
2022/02/26 06:15:04;;;;;;;18.73;5.97;;;8.30;99.90;;;;;;5113428;28;20219;-66
2022/02/26 06:17:31;;;;;;;18.83;4.35;;;8.30;99.90;;;;;;5113119;28;20222;-66
2022/02/26 06:19:58;;;;;;;14.35;3.90;;;8.30;99.90;;;;;;5112376;28;20242;-66
2022/02/26 06:22:25;;;;;;;10.52;4.10;;;8.30;99.90;;;;;;5113192;28;20230;-66
2022/02/26 06:24:53;;;;;;;12.20;4.20;;;8.30;99.90;;;;;;5112566;28;20305;-66
2022/02/26 06:27:20;;;;;;;11.10;4.07;;;8.30;99.90;;;;;;5113109;28;20219;-66
2022/02/26 06:29:47;;;;;;;7.05;3.45;;;8.30;99.90;;;;;;5112643;28;20215;-66
2022/02/26 06:32:14;;;;;;;8.70;4.10;;;8.40;99.90;;;;;;5112281;28;20233;-66
2022/02/26 06:34:42;;;;;;;8.60;3.47;;;8.40;99.90;;;;;;5112683;28;20561;-66
2022/02/26 06:37:09;;;;;;;15.60;5.53;;;8.40;99.90;;;;;;5113004;28;20219;-66
2022/02/26 06:39:36;;;;;;;13.02;4.90;;;8.40;99.90;;;;;;5112755;28;20215;-66
2022/02/26 06:42:04;;;;;;;13.63;3.17;;;8.40;99.90;;;;;;5112869;28;20695;-66
2022/02/26 06:44:31;;;;;;;17.23;4.68;;;8.40;99.90;;;;;;5112956;28;20234;-65
2022/02/26 06:46:58;;;;;;;14.43;4.40;;;8.40;99.90;;;;;;5112431;28;20211;-65
2022/02/26 06:49:25;;;;;;;12.85;4.80;;;8.40;99.90;;;;;;5113104;28;20226;-67
2022/02/26 06:51:51;;;;;;;10.82;4.25;;;8.40;99.90;;;;;;5112221;28;20230;-66
2022/02/26 06:54:18;;;;;;;13.23;4.95;;;8.40;99.90;;;;;;5112768;28;20226;-66
2022/02/26 06:56:45;;;;;;;17.20;5.90;;;8.40;99.90;;;;;;5112350;28;20219;-66
2022/02/26 06:59:13;;;;;;;16.42;5.80;;;8.40;99.90;;;;;;5112830;28;20223;-66
2022/02/26 07:01:40;;;;;;;18.48;7.40;;;8.40;99.90;;;;;;5112025;28;20246;-66
2022/02/26 07:04:07;;;;;;;19.23;5.32;;;8.40;99.90;;;;;;5112618;28;20231;-66
2022/02/26 07:06:34;;;;;;;11.77;4.80;;;8.50;99.90;;;;;;5112538;28;20223;-66
2022/02/26 07:09:01;;;;;;;14.32;7.38;;;8.50;99.90;;;;;;5111903;28;20226;-66
2022/02/26 07:11:28;;;;;;;11.93;5.00;;;8.40;99.90;;;;;;5112480;28;20219;-67
2022/02/26 07:13:55;;;;;;;14.73;5.35;;;8.50;99.90;;;;;;5112103;28;20612;-67
2022/02/26 07:16:23;;;;;;;10.00;4.30;;;8.50;99.90;;;;;;5112610;28;20306;-67
2022/02/26 07:18:50;;;;;;;6.95;4.00;;;8.50;99.90;;;;;;5112303;28;20571;-66
2022/02/26 07:21:16;;;;;;;14.00;3.40;;;8.50;99.90;;;;;;5112462;28;20487;-67
2022/02/26 07:23:43;;;;;;;11.55;4.22;;;8.50;99.90;;;;;;5112102;28;20226;-67
2022/02/26 07:26:10;;;;;;;12.68;4.63;;;8.50;99.90;;;;;;5112434;28;20673;-65
2022/02/26 07:28:37;;;;;;;13.32;4.32;;;8.50;99.90;;;;;;5112524;28;20215;-66
2022/02/26 07:31:04;;;;;;;10.35;4.78;;;8.60;99.90;;;;;;5112466;28;20219;-66
2022/02/26 07:33:32;;;;;;;13.98;5.30;;;8.50;99.90;;;;;;5112426;28;20219;-66
2022/02/26 07:35:59;;;;;;;14.35;5.13;;;8.50;99.90;;;;;;5111925;28;20227;-67
2022/02/26 07:38:26;;;;;;;10.77;4.15;;;8.60;99.90;;;;;;5112598;28;20570;-65
2022/02/26 07:40:52;;;;;;;11.50;4.15;;;8.50;99.90;;;;;;5111970;28;20573;-66
2022/02/26 07:43:19;;;;;;;13.10;5.57;;;8.50;99.90;;;;;;5113719;28;20223;-67
2022/02/26 07:45:46;;;;;;;16.00;5.55;;;8.60;99.90;;;;;;5115626;28;20242;-66
2022/02/26 07:48:13;;;;;;;9.07;3.95;;;8.50;99.90;;;;;;5115953;27;20677;-65
2022/02/26 07:50:41;;;;;;;13.98;4.60;;;8.60;99.90;;;;;;5115946;28;20234;-66
2022/02/26 07:53:08;;;;;;;9.18;4.90;;;8.60;99.90;;;;;;5115751;28;21135;-67
2022/02/26 07:55:37;;;;;;;9.63;4.43;;;8.60;99.90;;;;;;5115795;27;20227;-66
2022/02/26 07:58:05;;;;;;;11.25;4.40;;;8.60;99.90;;;;;;5115265;28;20223;-66
2022/02/26 08:00:32;;;;;;;13.02;5.47;;;8.60;99.90;;;;;;5115766;28;20219;-66
2022/02/26 08:03:00;;;;;;;14.77;4.93;;;8.70;99.90;;;;;;5115193;28;20515;-66
2022/02/26 08:05:27;;;;;;;12.32;4.30;;;8.70;99.90;;;;;;5115477;28;20223;-65
2022/02/26 08:07:55;;;;;;;12.00;5.63;;;8.70;99.90;;;;;;5115108;28;20237;-66
2022/02/26 08:10:22;;;;;;;15.55;4.50;;;8.70;99.90;;;;;;5115621;28;20227;-67
2022/02/26 08:12:50;;;;;;;7.28;3.50;;;8.80;99.90;;;;;;5115100;27;20231;-67
2022/02/26 08:15:19;;;;;;;12.93;4.70;;;8.80;99.90;;;;;;5115673;27;20223;-67
2022/02/26 08:17:47;;;;;;;11.60;5.35;;;8.80;99.90;;;;;;5114994;28;20222;-66
2022/02/26 08:20:16;;;;;;;14.32;5.03;;;8.80;99.90;;;;;;5115344;27;20325;-67
2022/02/26 08:22:44;;;;;;;12.10;5.10;;;8.80;99.90;;;;;;5115168;28;20626;-66
2022/02/26 08:25:13;;;;;;;11.50;5.13;;;8.70;99.90;;;;;;5114882;28;20219;-67
2022/02/26 08:27:40;;;;;;;8.43;3.88;;;8.70;99.90;;;;;;5114918;27;20219;-66
2022/02/26 08:30:10;;;;;;;8.35;4.43;;;8.80;99.90;;;;;;5114737;28;20222;-66
2022/02/26 08:32:37;;;;;;;11.02;4.47;;;8.80;99.90;;;;;;5114949;28;20223;-66
2022/02/26 08:35:05;;;;;;;9.52;4.28;;;8.80;99.90;;;;;;5114491;27;20588;-66
2022/02/26 08:37:33;;;;;;;8.55;4.13;;;8.90;99.90;;;;;;5115222;28;20219;-66
2022/02/26 08:40:00;;;;;;;8.50;3.78;;;8.90;99.90;;;;;;5114544;28;20223;-66
2022/02/26 08:42:28;;;;;;;8.88;4.82;;;8.90;99.90;;;;;;5114992;28;20219;-68
2022/02/26 08:44:54;;;;;;;15.68;4.65;;;8.90;99.90;;;;;;5114556;27;20242;-67
2022/02/26 08:47:21;;;;;;;12.23;7.32;;;8.90;99.90;;;;;;5114942;27;20576;-67
2022/02/26 08:49:48;;;;;;;11.77;6.28;;;8.90;99.90;;;;;;5114485;27;20241;-66
2022/02/26 08:52:16;;;;;;;12.85;6.30;;;8.90;99.90;;;;;;5114534;28;20219;-65
2022/02/26 08:54:43;;;;;;;10.88;4.55;;;8.90;99.90;;;;;;5113440;27;20221;-66
2022/02/26 08:57:10;;;;;;;9.32;5.55;;;9.00;99.90;;;;;;5114710;28;20227;-67
2022/02/26 08:59:38;;;;;;;15.43;7.07;;;9.00;99.90;;;;;;5114538;28;20223;-65
2022/02/26 09:02:05;;;;;;;14.27;6.68;;;9.00;99.90;;;;;;5113859;28;20223;-65
2022/02/26 09:04:32;;;;;;;11.82;4.57;;;9.00;99.90;;;;;;5114269;28;20237;-65
2022/02/26 09:06:59;;;;;;;12.30;4.38;;;9.00;99.90;;;;;;5114019;28;20230;-65
2022/02/26 09:09:26;;;;;;;13.13;5.30;;;9.00;99.90;;;;;;5114177;28;20222;-66
2022/02/26 09:11:53;;;;;;;8.88;4.85;;;9.00;99.90;;;;;;5113838;28;20572;-67
2022/02/26 09:14:20;;;;;;;15.02;5.35;;;9.00;99.90;;;;;;5114321;28;20673;-65
2022/02/26 09:16:48;;;;;;;13.40;5.10;;;9.00;99.90;;;;;;5114093;28;20229;-67
2022/02/26 09:19:15;;;;;;;8.95;4.70;;;9.10;99.90;;;;;;5113879;28;20223;-67
2022/02/26 09:21:42;;;;;;;10.40;4.82;;;9.10;99.90;;;;;;5113819;28;20689;-66
2022/02/26 09:24:09;;;;;;;11.63;4.47;;;9.10;99.90;;;;;;5113758;28;20223;-65
2022/02/26 09:26:36;;;;;;;5.75;3.08;;;9.10;99.90;;;;;;5114080;28;20223;-65
2022/02/26 09:29:09;;;;;;;5.68;3.15;;;9.10;99.90;;;;;;5113549;28;20238;-66
2022/02/26 09:31:40;;;;;;;7.55;3.38;;;9.20;99.90;;;;;;5113905;27;20241;-65
2022/02/26 09:34:09;;;;;;;10.45;3.88;;;9.20;99.90;;;;;;5113587;27;20298;-66
2022/02/26 09:36:36;;;;;;;6.68;3.78;;;9.20;99.90;;;;;;5113778;28;20219;-66
2022/02/26 09:39:03;;;;;;;8.00;3.17;;;9.20;99.90;;;;;;5113218;27;20245;-66
2022/02/26 09:41:32;;;;;;;10.20;3.10;;;9.20;99.90;;;;;;5113840;28;20227;-66
2022/02/26 09:44:00;;;;;;;5.60;2.90;;;9.20;99.90;;;;;;5113280;28;20567;-66
2022/02/26 09:46:27;;;;;;;9.30;3.20;;;9.30;99.90;;;;;;5113527;28;20229;-66
2022/02/26 09:48:54;;;;;;;7.55;3.28;;;9.30;99.90;;;;;;5113228;28;20234;-66
2022/02/26 09:51:23;;;;;;;10.02;5.63;;;9.40;99.90;;;;;;5113665;28;20223;-67
2022/02/26 09:53:51;;;;;;;9.68;4.10;;;9.40;99.90;;;;;;5113507;28;20539;-67
2022/02/26 09:56:18;;;;;;;6.47;3.85;;;9.40;99.90;;;;;;5113591;28;20239;-66
2022/02/26 09:58:45;;;;;;;14.07;4.85;;;9.40;99.90;;;;;;5113486;28;20311;-67
2022/02/26 10:01:12;;;;;;;6.70;3.47;;;9.40;99.90;;;;;;5112893;27;20231;-66
2022/02/26 10:03:39;;;;;;;8.55;3.33;;;9.40;99.90;;;;;;5113385;28;20219;-67
2022/02/26 10:06:11;;;;;;;10.07;3.33;;;9.40;99.90;;;;;;5112777;28;20257;-67
2022/02/26 10:08:42;;;;;;;4.78;2.15;;;9.50;99.90;;;;;;5113172;28;20227;-67
2022/02/26 10:11:22;;;;;;;8.88;3.00;;;9.50;99.90;;;;;;5112801;28;20688;-67
2022/02/26 10:13:51;;;;;;;6.80;3.20;;;9.50;99.90;;;;;;5113445;28;20234;-65
2022/02/26 10:16:17;;;;;;;8.73;3.42;;;9.50;99.90;;;;;;5112933;28;20329;-66
2022/02/26 10:18:54;;;;;;;10.15;4.35;;;9.40;99.90;;;;;;5113312;28;20309;-65
2022/02/26 10:21:29;;;;;;;6.45;2.63;;;9.40;99.90;;;;;;5112858;28;20226;-65
2022/02/26 10:23:57;;;;;;;7.13;2.90;;;9.40;99.90;;;;;;5112985;28;20227;-66
2022/02/26 10:26:26;;;;;;;7.20;2.90;;;9.40;99.90;;;;;;5112749;28;21284;-66
2022/02/26 10:28:52;;;;;;;8.38;2.65;;;9.40;99.90;;;;;;5113206;28;20231;-66
2022/02/26 10:31:19;;;;;;;9.55;2.83;;;9.40;99.90;;;;;;5112508;28;20722;-66
2022/02/26 10:33:46;;;;;;;6.97;2.88;;;9.40;99.90;;;;;;5112698;28;20560;-67
2022/02/26 10:36:13;;;;;;;6.45;2.33;;;9.40;99.90;;;;;;5112520;28;20229;-67
2022/02/26 10:38:40;;;;;;;7.72;3.33;;;9.40;99.90;;;;;;5112782;28;20578;-67
2022/02/26 10:41:10;;;;;;;8.27;2.50;;;9.50;99.90;;;;;;5112351;28;20231;-65
2022/02/26 10:43:46;;;;;;;5.57;2.65;;;9.50;99.90;;;;;;5113007;28;20224;-66
2022/02/26 10:46:15;;;;;;;6.38;3.30;;;9.50;99.90;;;;;;5112152;28;20235;-66
2022/02/26 10:48:43;;;;;;;4.45;2.83;;;9.50;99.90;;;;;;5112725;28;20484;-65
2022/02/26 10:51:15;;;;;;;5.38;2.20;;;9.60;99.90;;;;;;5112297;28;20230;-65
2022/02/26 10:53:43;;;;;;;3.53;2.20;;;9.60;99.90;;;;;;5112804;28;20568;-65
2022/02/26 10:56:12;;;;;;;7.55;3.15;;;9.60;99.90;;;;;;5112098;28;20335;-67
2022/02/26 10:58:41;;;;;;;3.03;2.30;;;9.60;99.90;;;;;;5112450;28;20223;-65
2022/02/26 11:01:11;;;;;;;6.63;3.15;;;9.60;99.90;;;;;;5111894;28;20231;-66
2022/02/26 11:03:38;;;;;;;6.80;2.78;;;9.60;99.90;;;;;;5112567;28;20223;-66
2022/02/26 11:06:09;;;;;;;9.05;2.40;;;9.60;99.90;;;;;;5111974;28;20665;-66
2022/02/26 11:08:37;;;;;;;6.68;2.42;;;9.60;99.90;;;;;;5112831;28;20230;-66
2022/02/26 11:11:06;;;;;;;8.98;3.30;;;9.50;99.90;;;;;;5112274;28;20227;-66
2022/02/26 11:13:36;;;;;;;5.63;2.90;;;9.50;99.90;;;;;;5112617;28;20672;-65
2022/02/26 11:16:06;;;;;;;8.90;3.40;;;9.60;99.90;;;;;;5112288;28;20247;-67
2022/02/26 11:18:40;;;;;;;6.32;3.03;;;9.50;99.90;;;;;;5114638;28;20215;-67
2022/02/26 11:21:09;;;;;;;5.05;2.60;;;9.60;99.90;;;;;;5115886;28;20227;-66
2022/02/26 11:23:36;;;;;;;5.55;2.33;;;9.60;99.90;;;;;;5116380;28;20223;-65
2022/02/26 11:26:03;;;;;;;5.60;2.50;;;9.60;99.90;;;;;;5116407;28;20287;-65
2022/02/26 11:28:31;;;;;;;7.70;2.50;;;9.60;99.80;;;;;;5116079;28;21561;-65
2022/02/26 11:31:04;;;;;;;7.05;2.90;;;9.60;99.70;;;;;;5116169;28;20223;-67
2022/02/26 11:33:32;;;;;;;6.35;2.83;;;9.70;99.70;;;;;;5116265;28;21014;-65
2022/02/26 11:36:01;;;;;;;8.25;2.83;;;9.70;99.70;;;;;;5116108;28;20215;-65
2022/02/26 11:38:32;;;;;;;14.27;3.63;;;9.80;99.50;;;;;;5115551;27;20577;-66
2022/02/26 11:41:22;;;;;;;8.27;2.50;;;9.70;99.40;;;;;;5116049;28;20697;-65
2022/02/26 11:43:51;;;;;;;6.07;2.67;;;9.80;99.50;;;;;;5116087;27;20223;-65
2022/02/26 11:46:31;;;;;;;6.75;2.80;;;9.80;99.60;;;;;;5116009;28;20227;-66
2022/02/26 11:48:59;;;;;;;5.72;2.95;;;9.80;99.40;;;;;;5115467;28;20234;-66
2022/02/26 11:51:33;;;;;;;4.82;2.85;;;9.80;99.60;;;;;;5115722;28;20310;-66
2022/02/26 11:54:00;;;;;;;4.30;2.65;;;9.80;99.60;;;;;;5115495;27;20219;-66
2022/02/26 11:56:40;;;;;;;9.73;3.65;;;9.90;99.30;;;;;;5115809;28;20221;-66
2022/02/26 11:59:07;;;;;;;6.00;3.20;;;9.90;99.30;;;;;;5115334;27;20222;-67
2022/02/26 12:01:35;;;;;;;8.07;4.55;;;9.90;99.30;;;;;;5115440;28;20231;-67
2022/02/26 12:04:02;;;;;;;5.65;4.20;;;10.00;98.70;;;;;;5115318;28;20230;-67
2022/02/26 12:06:40;;;;;;;12.00;4.22;;;10.00;98.80;;;;;;5115536;28;20237;-67
2022/02/26 12:09:14;;;;;;;8.10;3.42;;;10.00;98.60;;;;;;5115012;28;20234;-65
2022/02/26 12:11:46;;;;;;;5.57;3.10;;;10.10;98.50;;;;;;5115501;28;20280;-66
2022/02/26 12:14:26;;;;;;;8.27;3.53;;;10.10;98.20;;;;;;5115216;27;20680;-68
2022/02/26 12:16:58;;;;;;;7.65;3.65;;;10.10;98.20;;;;;;5115015;27;20280;-66
2022/02/26 12:19:26;;;;;;;6.43;3.72;;;10.10;98.20;;;;;;5115273;28;20219;-67
2022/02/26 12:21:58;;;;;;;5.13;2.30;;;10.10;98.10;;;;;;5114862;28;20227;-67
2022/02/26 12:24:27;;;;;;;5.43;2.85;;;10.10;98.10;;;;;;5115409;27;20703;-67
2022/02/26 12:27:07;;;;;;;6.55;2.72;;;10.10;97.90;;;;;;5114733;28;20227;-66
2022/02/26 12:29:54;;;;;;;9.75;2.60;;;10.10;97.90;;;;;;5113925;28;20223;-67
2022/02/26 12:32:24;;;;;;;8.18;3.20;;;10.10;97.60;;;;;;5114657;28;20215;-66
2022/02/26 12:35:01;;;;;;;4.57;2.65;;;10.10;97.40;;;;;;5114439;28;20234;-67
2022/02/26 12:37:29;;;;;;;4.53;2.60;;;10.20;97.30;;;;;;5126695;27;20628;-65
2022/02/26 12:39:59;;;;;;;5.70;2.08;;;10.20;96.50;;;;;;5133481;27;20237;-65
2022/02/26 12:42:28;;;;;;;4.32;1.95;;;10.10;95.50;;;;;;5133133;27;20793;-65
2022/02/26 12:44:57;;;;;;;4.43;2.53;;;10.10;95.40;;;;;;5133490;27;20226;-66
2022/02/26 12:47:26;;;;;;;5.40;2.92;;;10.10;95.30;;;;;;5133009;27;20230;-65
2022/02/26 12:49:54;;;;;;;4.55;2.78;;;10.10;95.40;;;;;;5133766;27;20222;-66
2022/02/26 12:52:21;;;;;;;7.18;2.50;;;10.10;95.60;;;;;;5134719;27;20222;-65
2022/02/26 12:54:48;;;;;;;4.70;2.47;;;10.10;95.70;;;;;;5135202;27;20249;-65